createdAt,value
2018-05-04T00:00:51.822Z,75.50
2018-05-04T00:03:19.272Z,75.20
2018-05-04T00:05:47.421Z,75.60
2018-05-04T00:08:15.643Z,76.00
2018-05-04T00:10:43.077Z,76.00
2018-05-04T00:13:10.526Z,75.70
2018-05-04T00:15:38.731Z,75.50
2018-05-04T00:18:06.182Z,75.50
2018-05-04T00:20:33.606Z,75.50
2018-05-04T00:23:01.843Z,75.80
2018-05-04T00:25:29.284Z,75.70
2018-05-04T00:27:56.734Z,75.70
2018-05-04T00:30:24.196Z,76.00
2018-05-04T00:32:51.644Z,75.70
2018-05-04T00:35:19.079Z,76.50
2018-05-04T00:37:46.521Z,76.50
2018-05-04T00:40:14.738Z,76.80
2018-05-04T00:42:42.188Z,76.10
2018-05-04T00:45:09.635Z,76.00
2018-05-04T00:47:37.073Z,76.80
2018-05-04T00:50:05.289Z,76.00
2018-05-04T00:52:32.727Z,76.70
2018-05-04T00:55:00.187Z,75.80
2018-05-04T00:57:27.617Z,76.40
2018-05-04T00:59:56.820Z,76.20
2018-05-04T01:02:25.028Z,76.20
2018-05-04T01:04:52.480Z,76.20
2018-05-04T01:07:19.937Z,76.10
2018-05-04T01:09:47.376Z,76.80
2018-05-04T01:12:14.811Z,76.20
2018-05-04T01:14:43.029Z,75.70
2018-05-04T01:17:10.476Z,76.20
2018-05-04T01:19:37.922Z,76.60
2018-05-04T01:22:06.129Z,76.20
2018-05-04T01:24:34.567Z,76.20
2018-05-04T01:27:02.793Z,76.50
2018-05-04T01:29:30.246Z,76.50
2018-05-04T01:31:57.708Z,76.20
2018-05-04T01:34:25.156Z,77.10
2018-05-04T01:36:52.601Z,76.30
2018-05-04T01:39:20.055Z,76.60
2018-05-04T01:41:47.500Z,76.10
2018-05-04T01:44:14.947Z,76.10
2018-05-04T01:46:43.154Z,77.90
2018-05-04T01:49:10.601Z,77.90
2018-05-04T01:51:43.566Z,76.10
2018-05-04T01:54:11.782Z,76.30
2018-05-04T01:56:39.230Z,76.30
2018-05-04T01:59:06.674Z,76.80
2018-05-04T02:01:34.113Z,76.50
2018-05-04T02:04:02.323Z,76.30
2018-05-04T02:06:29.767Z,76.30
2018-05-04T02:08:57.209Z,76.30
2018-05-04T02:11:24.646Z,76.00
2018-05-04T02:13:52.855Z,76.50
2018-05-04T02:16:20.303Z,76.50
2018-05-04T02:18:47.756Z,76.30
2018-05-04T02:21:15.189Z,76.10
2018-05-04T02:23:43.396Z,76.30
2018-05-04T02:26:10.836Z,76.30
2018-05-04T02:28:39.041Z,77.40
2018-05-04T02:31:06.486Z,77.30
2018-05-04T02:33:33.940Z,76.70
2018-05-04T02:36:01.377Z,77.40
2018-05-04T02:38:29.596Z,78.80
2018-05-04T02:40:57.038Z,78.70
2018-05-04T02:43:24.493Z,77.90
2018-05-04T02:45:51.939Z,77.50
2018-05-04T02:48:19.372Z,77.10
2018-05-04T02:50:47.573Z,78.10
2018-05-04T02:53:15.017Z,78.10
2018-05-04T02:55:43.233Z,78.60
2018-05-04T02:58:10.673Z,78.60
2018-05-04T03:00:40.165Z,77.50
2018-05-04T03:03:07.599Z,77.80
2018-05-04T03:05:35.818Z,79.70
2018-05-04T03:08:03.258Z,79.60
2018-05-04T03:10:32.639Z,78.10
2018-05-04T03:13:00.851Z,78.10
2018-05-04T03:15:28.283Z,78.00
2018-05-04T03:17:55.725Z,78.50
2018-05-04T03:20:23.957Z,78.20
2018-05-04T03:22:51.391Z,78.10
2018-05-04T03:25:18.833Z,78.70
2018-05-04T03:27:46.280Z,80.20
2018-05-04T03:30:15.495Z,80.80
2018-05-04T03:32:42.929Z,80.80
2018-05-04T03:35:11.155Z,80.30
2018-05-04T03:37:38.599Z,80.20
2018-05-04T03:40:06.059Z,80.10
2018-05-04T03:42:33.512Z,80.60
2018-05-04T03:45:00.952Z,81.40
2018-05-04T03:47:28.393Z,81.30
2018-05-04T03:49:56.626Z,80.50
2018-05-04T03:52:24.088Z,80.30
2018-05-04T03:54:51.536Z,80.60
2018-05-04T04:00:30.512Z,79.10
2018-05-04T04:03:09.653Z,79.50
2018-05-04T04:05:37.869Z,80.60
2018-05-04T04:08:05.314Z,80.60
2018-05-04T04:10:32.747Z,80.60
2018-05-04T04:13:00.959Z,79.70
2018-05-04T04:15:30.508Z,79.60
2018-05-04T04:18:03.134Z,80.80
2018-05-04T04:20:34.971Z,80.90
2018-05-04T04:23:05.203Z,80.30
2018-05-04T04:25:33.407Z,81.00
2018-05-04T04:28:00.857Z,80.90
2018-05-04T04:30:31.775Z,80.20
2018-05-04T04:33:03.133Z,80.00
2018-05-04T04:35:30.582Z,80.00
2018-05-04T04:37:59.062Z,79.90
2018-05-04T04:40:27.259Z,80.20
2018-05-04T04:42:54.710Z,80.20
2018-05-04T04:45:22.133Z,80.30
2018-05-04T04:47:50.351Z,80.00
2018-05-04T04:50:23.733Z,79.90
2018-05-04T04:52:51.193Z,80.50
2018-05-04T04:55:24.470Z,80.00
2018-05-04T04:57:55.733Z,80.50
2018-05-04T05:00:23.175Z,80.50
2018-05-04T05:02:50.694Z,82.20
2018-05-04T05:05:18.144Z,80.20
2018-05-04T05:07:45.597Z,81.40
2018-05-04T05:10:13.041Z,80.10
2018-05-04T05:12:40.562Z,78.90
2018-05-04T05:15:07.961Z,79.70
2018-05-04T05:17:35.375Z,80.60
2018-05-04T05:20:02.823Z,80.20
2018-05-04T05:22:31.042Z,80.00
2018-05-04T05:24:59.494Z,79.90
2018-05-04T05:27:26.933Z,81.10
2018-05-04T05:29:56.150Z,82.60
2018-05-04T05:32:23.593Z,82.60
2018-05-04T05:34:51.816Z,80.50
2018-05-04T05:37:19.793Z,80.50
2018-05-04T05:39:47.244Z,80.00
2018-05-04T05:42:14.684Z,78.70
2018-05-04T05:44:42.139Z,80.00
2018-05-04T05:47:09.583Z,81.90
2018-05-04T05:49:37.022Z,78.60
2018-05-04T05:52:05.229Z,77.40
2018-05-04T05:54:32.693Z,77.30
2018-05-04T05:57:01.136Z,77.90
2018-05-04T05:59:29.354Z,78.90
2018-05-04T06:01:56.789Z,78.70
2018-05-04T06:04:24.229Z,77.20
2018-05-04T06:06:52.444Z,78.10
2018-05-04T06:09:19.982Z,78.10
2018-05-04T06:11:47.343Z,78.60
2018-05-04T06:14:14.775Z,77.70
2018-05-04T06:16:42.981Z,77.00
2018-05-04T06:19:10.424Z,77.00
2018-05-04T06:21:37.867Z,77.00
2018-05-04T06:24:06.079Z,75.30
2018-05-04T06:26:33.529Z,75.30
2018-05-04T06:29:00.967Z,77.40
2018-05-04T06:31:28.414Z,75.40
2018-05-04T06:33:58.636Z,76.70
2018-05-04T06:36:26.853Z,74.30
2018-05-04T06:38:54.305Z,74.30
2018-05-04T06:41:21.772Z,73.40
2018-05-04T06:43:49.202Z,73.80
2018-05-04T06:46:16.651Z,74.30
2018-05-04T06:48:44.147Z,73.40
2018-05-04T06:51:12.311Z,75.20
2018-05-04T06:53:39.787Z,75.20
2018-05-04T06:56:07.240Z,75.10
2018-05-04T06:58:34.701Z,74.70
2018-05-04T07:01:02.154Z,74.70
2018-05-04T07:03:29.603Z,75.00
2018-05-04T07:05:57.047Z,75.90
2018-05-04T07:08:24.502Z,74.40
2018-05-04T07:10:51.931Z,74.50
2018-05-04T07:13:19.371Z,74.40
2018-05-04T07:15:47.590Z,75.80
2018-05-04T07:18:15.049Z,75.80
2018-05-04T07:20:43.489Z,74.80
2018-05-04T07:23:11.704Z,73.40
2018-05-04T07:25:39.148Z,72.70
2018-05-04T07:28:06.579Z,73.80
2018-05-04T07:30:34.780Z,73.60
2018-05-04T07:33:02.247Z,73.60
2018-05-04T07:35:29.698Z,71.60
2018-05-04T07:37:57.124Z,70.80
2018-05-04T07:40:25.341Z,71.00
2018-05-04T07:42:52.781Z,71.00
2018-05-04T07:45:20.240Z,70.80
2018-05-04T07:47:47.689Z,70.40
2018-05-04T07:50:15.144Z,70.80
2018-05-04T07:52:42.585Z,72.60
2018-05-04T07:55:10.844Z,72.10
2018-05-04T07:57:38.237Z,72.10
2018-05-04T08:00:05.672Z,74.30
2018-05-04T08:02:33.887Z,72.40
2018-05-04T08:05:01.328Z,72.20
2018-05-04T08:07:28.768Z,70.90
2018-05-04T08:09:56.964Z,70.80
2018-05-04T08:12:24.415Z,70.10
2018-05-04T08:14:51.864Z,70.20
2018-05-04T08:17:19.312Z,70.70
2018-05-04T08:19:47.531Z,70.60
2018-05-04T08:22:14.977Z,70.50
2018-05-04T08:24:42.413Z,70.50
2018-05-04T08:27:09.849Z,73.70
2018-05-04T08:29:38.067Z,70.20
2018-05-04T08:32:05.518Z,70.10
2018-05-04T08:34:32.956Z,69.40
2018-05-04T08:37:00.401Z,71.40
2018-05-04T08:39:28.602Z,69.60
2018-05-04T08:41:56.044Z,69.60
2018-05-04T08:44:24.253Z,70.80
2018-05-04T08:46:51.733Z,70.80
2018-05-04T08:49:19.120Z,70.00
2018-05-04T08:51:47.334Z,70.30
2018-05-04T08:54:14.824Z,70.30
2018-05-04T08:56:42.207Z,73.70
2018-05-04T08:59:10.422Z,70.20
2018-05-04T09:01:37.868Z,70.20
2018-05-04T09:04:05.293Z,68.80
2018-05-04T09:06:32.733Z,69.20
2018-05-04T09:09:00.176Z,69.50
2018-05-04T09:11:27.638Z,69.70
2018-05-04T09:13:55.077Z,68.90
2018-05-04T09:16:22.539Z,69.90
2018-05-04T09:18:49.985Z,70.30
2018-05-04T09:21:17.433Z,67.30
2018-05-04T09:23:44.863Z,68.50
2018-05-04T09:26:13.079Z,68.80
2018-05-04T09:28:40.531Z,68.90
2018-05-04T09:31:07.988Z,68.20
2018-05-04T09:33:35.434Z,70.30
2018-05-04T09:36:02.879Z,68.50
2018-05-04T09:38:30.319Z,70.20
2018-05-04T09:40:58.572Z,69.00
2018-05-04T09:43:26.104Z,68.90
2018-05-04T09:45:53.470Z,68.60
2018-05-04T09:48:20.908Z,69.40
2018-05-04T09:50:48.347Z,70.40
2018-05-04T09:53:15.800Z,73.10
2018-05-04T09:55:43.241Z,70.30
2018-05-04T09:58:11.468Z,69.90
2018-05-04T10:00:38.901Z,69.90
2018-05-04T10:03:06.364Z,68.50
2018-05-04T10:05:33.808Z,69.10
2018-05-04T10:08:01.258Z,68.90
2018-05-04T10:10:28.691Z,69.10
2018-05-04T10:12:56.904Z,68.10
2018-05-04T10:15:24.355Z,68.00
2018-05-04T10:17:51.808Z,69.70
2018-05-04T10:20:19.259Z,70.20
2018-05-04T10:22:46.704Z,70.50
2018-05-04T10:25:14.918Z,67.50
2018-05-04T10:27:42.360Z,67.60
2018-05-04T10:30:09.803Z,66.50
2018-05-04T10:32:37.260Z,68.40
2018-05-04T10:35:04.720Z,68.20
2018-05-04T10:37:32.920Z,66.60
2018-05-04T10:40:00.373Z,66.60
2018-05-04T10:42:27.814Z,66.50
2018-05-04T10:44:55.259Z,67.50
2018-05-04T10:47:23.464Z,65.70
2018-05-04T10:49:50.928Z,66.40
2018-05-04T10:52:18.373Z,63.40
2018-05-04T10:54:45.827Z,64.00
2018-05-04T10:57:13.324Z,65.10
2018-05-04T10:59:40.730Z,63.80
2018-05-04T11:02:08.174Z,64.00
2018-05-04T11:04:36.394Z,62.60
2018-05-04T11:07:03.839Z,62.60
2018-05-04T11:09:31.290Z,63.40
2018-05-04T11:12:00.712Z,62.10
2018-05-04T11:14:28.877Z,62.00
2018-05-04T11:16:56.317Z,62.00
2018-05-04T11:19:23.802Z,62.50
2018-05-04T11:21:51.419Z,62.40
2018-05-04T11:24:19.650Z,63.00
2018-05-04T11:26:47.108Z,63.00
2018-05-04T11:29:14.565Z,63.30
2018-05-04T11:31:42.006Z,60.80
2018-05-04T11:34:09.426Z,62.50
2018-05-04T11:36:37.631Z,61.40
2018-05-04T11:39:05.085Z,61.40
2018-05-04T11:41:32.529Z,63.10
2018-05-04T11:43:59.962Z,64.80
2018-05-04T11:46:28.172Z,61.20
2018-05-04T11:48:55.616Z,61.10
2018-05-04T11:51:23.055Z,65.00
2018-05-04T11:53:51.262Z,61.30
2018-05-04T11:56:18.711Z,61.20
2018-05-04T11:58:46.182Z,61.90
2018-05-04T12:01:13.633Z,62.30
2018-05-04T12:03:41.073Z,63.30
2018-05-04T12:06:08.527Z,62.50
2018-05-04T12:08:35.967Z,62.20
2018-05-04T12:11:04.179Z,62.40
2018-05-04T12:13:31.626Z,62.50
2018-05-04T12:15:59.072Z,62.10
2018-05-04T12:18:26.519Z,62.30
2018-05-04T12:20:54.729Z,66.00
2018-05-04T12:23:22.177Z,65.20
2018-05-04T12:25:50.013Z,64.30
2018-05-04T12:28:17.443Z,63.40
2018-05-04T12:30:44.888Z,63.30
2018-05-04T12:33:12.353Z,63.00
2018-05-04T12:35:39.790Z,65.40
2018-05-04T12:38:07.241Z,66.30
2018-05-04T12:40:34.666Z,64.20
2018-05-04T12:43:02.119Z,66.50
2018-05-04T12:45:30.337Z,63.20
2018-05-04T12:47:57.788Z,63.30
2018-05-04T12:50:25.232Z,62.60
2018-05-04T12:52:52.690Z,63.70
2018-05-04T12:55:20.148Z,66.10
2018-05-04T12:57:47.575Z,63.50
2018-05-04T13:00:15.803Z,64.20
2018-05-04T13:02:43.251Z,64.10
2018-05-04T13:05:11.922Z,63.90
2018-05-04T13:07:39.350Z,63.50
2018-05-04T13:10:07.568Z,65.60
2018-05-04T13:12:35.018Z,65.50
2018-05-04T13:15:02.480Z,63.60
2018-05-04T13:17:30.006Z,63.00
2018-05-04T13:19:57.367Z,64.10
2018-05-04T13:22:24.812Z,64.10
2018-05-04T13:24:53.027Z,64.20
2018-05-04T13:27:20.468Z,64.10
2018-05-04T13:29:47.934Z,64.20
2018-05-04T13:32:15.389Z,64.50
2018-05-04T13:34:42.836Z,62.70
2018-05-04T13:37:10.288Z,63.70
2018-05-04T13:39:37.728Z,64.40
2018-05-04T13:42:05.934Z,62.30
2018-05-04T13:44:33.386Z,62.30
2018-05-04T13:47:00.815Z,62.00
2018-05-04T13:49:29.023Z,64.20
2018-05-04T13:51:56.463Z,64.30
2018-05-04T13:54:23.904Z,62.50
2018-05-04T13:56:52.122Z,64.30
2018-05-04T13:59:19.563Z,64.30
2018-05-04T14:01:47.017Z,63.00
2018-05-04T14:04:14.476Z,62.80
2018-05-04T14:06:41.930Z,63.10
2018-05-04T14:09:09.382Z,62.70
2018-05-04T14:11:37.578Z,61.40
2018-05-04T14:14:05.024Z,61.20
2018-05-04T14:16:32.468Z,62.30
2018-05-04T14:18:59.915Z,61.10
2018-05-04T14:21:28.128Z,61.60
2018-05-04T14:23:55.568Z,61.50
2018-05-04T14:26:23.007Z,61.10
2018-05-04T14:28:51.228Z,61.20
2018-05-04T14:31:18.685Z,61.20
2018-05-04T14:33:46.139Z,61.60
2018-05-04T14:36:13.593Z,61.20
2018-05-04T14:38:41.032Z,60.40
2018-05-04T14:41:08.472Z,60.80
2018-05-04T14:43:36.691Z,62.70
2018-05-04T14:46:04.139Z,62.60
2018-05-04T14:48:31.590Z,61.90
2018-05-04T14:50:59.039Z,61.60
2018-05-04T14:53:26.490Z,59.90
2018-05-04T14:55:53.929Z,61.90
2018-05-04T14:58:22.148Z,63.00
2018-05-04T15:00:49.581Z,62.90
2018-05-04T15:03:17.026Z,62.40
2018-05-04T15:05:44.464Z,62.40
2018-05-04T15:08:12.680Z,61.20
2018-05-04T15:10:40.132Z,60.60
2018-05-04T15:13:07.569Z,60.60
2018-05-04T15:15:35.838Z,61.30
2018-05-04T15:18:04.424Z,60.30
2018-05-04T15:20:32.461Z,60.20
2018-05-04T15:23:00.191Z,61.60
2018-05-04T15:25:27.636Z,59.80
2018-05-04T15:27:55.072Z,60.60
2018-05-04T15:30:23.351Z,60.20
2018-05-04T15:32:51.550Z,60.50
2018-05-04T15:35:18.987Z,60.50
2018-05-04T15:37:46.432Z,59.90
2018-05-04T15:40:14.654Z,60.70
2018-05-04T15:42:42.090Z,60.60
2018-05-04T15:45:09.524Z,61.20
2018-05-04T15:47:37.774Z,61.10
2018-05-04T15:53:09.721Z,60.60
2018-05-04T15:55:37.163Z,60.60
2018-05-04T15:58:04.598Z,61.00
2018-05-04T16:00:32.805Z,62.80
2018-05-04T16:03:00.239Z,62.70
2018-05-04T16:05:27.726Z,61.00
2018-05-04T16:07:55.164Z,63.30
2018-05-04T16:10:22.608Z,61.50
2018-05-04T16:12:50.809Z,61.60
2018-05-04T16:15:18.251Z,62.20
2018-05-04T16:17:45.692Z,61.20
2018-05-04T16:20:13.910Z,62.20
2018-05-04T16:22:41.356Z,62.10
2018-05-04T16:25:08.808Z,61.10
2018-05-04T16:27:36.252Z,60.90
2018-05-04T16:30:03.688Z,60.70
2018-05-04T16:32:31.910Z,61.00
2018-05-04T16:34:59.328Z,61.00
2018-05-04T16:37:27.536Z,61.80
2018-05-04T16:39:54.972Z,61.80
2018-05-04T16:42:22.423Z,62.00
2018-05-04T16:44:49.974Z,61.50
2018-05-04T16:47:22.005Z,62.70
2018-05-04T16:49:49.441Z,62.70
2018-05-04T16:52:16.879Z,61.70
2018-05-04T16:54:44.320Z,63.30
2018-05-04T16:57:11.777Z,61.60
2018-05-04T16:59:39.993Z,61.20
2018-05-04T17:02:07.419Z,61.30
2018-05-04T17:04:34.872Z,61.30
2018-05-04T17:07:02.318Z,61.60
2018-05-04T17:09:30.528Z,63.50
2018-05-04T17:11:57.971Z,63.50
2018-05-04T17:14:25.419Z,63.30
2018-05-04T17:16:52.859Z,63.30
2018-05-04T17:19:21.073Z,63.90
2018-05-04T17:21:48.512Z,63.80
2018-05-04T17:24:15.953Z,63.60
2018-05-04T17:26:44.170Z,64.90
2018-05-04T17:29:11.613Z,64.90
2018-05-04T17:31:39.136Z,64.60
2018-05-04T17:34:07.374Z,65.80
2018-05-04T17:36:34.804Z,65.80
2018-05-04T17:39:02.236Z,64.80
2018-05-04T17:41:29.680Z,64.40
2018-05-04T17:43:57.898Z,65.70
2018-05-04T17:46:25.336Z,65.70
2018-05-04T17:48:52.767Z,64.90
2018-05-04T17:51:21.028Z,66.70
2018-05-04T17:53:48.451Z,66.70
2018-05-04T17:56:15.904Z,66.00
2018-05-04T17:58:43.339Z,65.50
2018-05-04T18:01:10.788Z,65.70
2018-05-04T18:03:38.236Z,65.90
2018-05-04T18:06:06.511Z,66.50
2018-05-04T18:08:34.719Z,66.50
2018-05-04T18:11:02.171Z,66.40
2018-05-04T18:13:29.605Z,67.40
2018-05-04T18:15:59.824Z,67.40
2018-05-04T18:18:28.036Z,67.40
2018-05-04T18:20:55.474Z,67.40
2018-05-04T18:23:22.905Z,67.90
2018-05-04T18:25:52.226Z,67.90
2018-05-04T18:28:20.428Z,68.10
2018-05-04T18:30:47.929Z,68.10
2018-05-04T18:33:15.399Z,69.30
2018-05-04T18:35:43.612Z,68.80
2018-05-04T18:38:11.070Z,68.60
2018-05-04T18:40:38.605Z,68.70
2018-05-04T18:43:06.051Z,69.10
2018-05-04T18:45:34.270Z,69.40
2018-05-04T18:48:01.723Z,69.40
2018-05-04T18:50:29.171Z,69.90
2018-05-04T18:52:56.620Z,69.80
2018-05-04T18:55:24.078Z,69.90
2018-05-04T18:57:51.524Z,69.70
2018-05-04T19:00:18.965Z,70.60
2018-05-04T19:02:52.863Z,70.50
2018-05-04T19:05:20.324Z,70.50
2018-05-04T19:07:47.771Z,70.90
2018-05-04T19:10:15.252Z,71.50
2018-05-04T19:12:42.655Z,70.50
2018-05-04T19:15:10.115Z,71.00
2018-05-04T19:17:37.578Z,70.60
2018-05-04T19:20:05.020Z,70.60
2018-05-04T19:22:32.469Z,70.70
2018-05-04T19:24:59.913Z,71.20
2018-05-04T19:27:27.491Z,71.20
2018-05-04T19:29:54.943Z,70.80
2018-05-04T19:32:22.410Z,70.80
2018-05-04T19:34:49.923Z,71.40
2018-05-04T19:37:18.299Z,71.30
2018-05-04T19:39:45.829Z,71.50
2018-05-04T19:42:13.167Z,71.50
2018-05-04T19:44:40.713Z,71.60
2018-05-04T19:47:08.128Z,71.50
2018-05-04T19:49:35.609Z,71.60
2018-05-04T19:52:03.036Z,71.60
2018-05-04T19:54:31.251Z,71.50
2018-05-04T19:56:58.683Z,71.50
2018-05-04T19:59:26.894Z,71.40
2018-05-04T20:01:54.335Z,71.40
2018-05-04T20:04:21.785Z,71.80
2018-05-04T20:06:49.221Z,71.30
2018-05-04T20:09:17.443Z,71.30
2018-05-04T20:11:44.903Z,71.30
2018-05-04T20:14:12.350Z,71.30
2018-05-04T20:16:39.794Z,71.60
2018-05-04T20:19:07.327Z,71.40
2018-05-04T20:21:35.540Z,71.70
2018-05-04T20:24:02.983Z,71.70
2018-05-04T20:26:30.431Z,71.10
2018-05-04T20:28:58.078Z,71.80
2018-05-04T20:31:25.495Z,71.10
2018-05-04T20:33:52.952Z,72.20
2018-05-04T20:36:20.475Z,71.60
2018-05-04T20:38:47.924Z,72.20
2018-05-04T20:41:15.364Z,71.40
2018-05-04T20:43:43.568Z,71.40
2018-05-04T20:46:11.012Z,71.40
2018-05-04T20:48:38.451Z,71.40
2018-05-04T20:51:06.656Z,71.50
2018-05-04T20:53:34.109Z,71.50
2018-05-04T20:56:01.552Z,71.60
2018-05-04T20:58:29.758Z,71.20
2018-05-04T21:00:57.221Z,71.10
2018-05-04T21:03:24.741Z,71.60
2018-05-04T21:05:53.495Z,72.00
2018-05-04T21:08:20.928Z,72.00
2018-05-04T21:10:48.388Z,71.90
2018-05-04T21:13:15.852Z,72.00
2018-05-04T21:15:43.283Z,72.30
2018-05-04T21:18:10.724Z,72.10
2018-05-04T21:20:38.164Z,72.40
2018-05-04T21:23:06.380Z,72.10
2018-05-04T21:25:33.823Z,72.10
2018-05-04T21:28:01.262Z,72.50
2018-05-04T21:30:29.455Z,72.70
2018-05-04T21:32:56.993Z,72.70
2018-05-04T21:35:24.345Z,72.40
2018-05-04T21:37:52.565Z,72.80
2018-05-04T21:40:19.995Z,72.70
2018-05-04T21:42:47.447Z,73.00
2018-05-04T21:45:14.901Z,72.70
2018-05-04T21:47:43.108Z,73.00
2018-05-04T21:50:10.562Z,73.00
2018-05-04T21:52:38.015Z,73.40
2018-05-04T21:55:05.452Z,73.70
2018-05-04T21:57:32.883Z,73.30
2018-05-04T22:00:00.356Z,73.10
2018-05-04T22:02:28.563Z,73.40
2018-05-04T22:04:56.024Z,73.40
2018-05-04T22:07:23.489Z,74.20
2018-05-04T22:09:50.936Z,73.60
2018-05-04T22:12:18.398Z,73.80
2018-05-04T22:14:45.849Z,74.00
2018-05-04T22:17:13.310Z,73.70
2018-05-04T22:19:40.762Z,74.00
2018-05-04T22:22:08.218Z,74.20
2018-05-04T22:24:35.655Z,74.20
2018-05-04T22:27:03.091Z,74.60
2018-05-04T22:29:31.310Z,74.40
2018-05-04T22:31:58.743Z,74.40
2018-05-04T22:34:26.192Z,74.10
2018-05-04T22:36:54.400Z,74.60
2018-05-04T22:39:21.857Z,74.60
2018-05-04T22:41:49.295Z,74.90
2018-05-04T22:44:16.735Z,74.60
2018-05-04T22:46:44.963Z,75.00
2018-05-04T22:49:12.409Z,74.90
2018-05-04T22:51:39.859Z,74.80
2018-05-04T22:54:07.292Z,74.90
2018-05-04T22:56:34.777Z,75.30
2018-05-04T22:59:02.949Z,75.30
2018-05-04T23:01:30.400Z,75.30
2018-05-04T23:03:57.841Z,75.60
2018-05-04T23:06:26.045Z,76.30
2018-05-04T23:08:53.488Z,76.30
2018-05-04T23:11:20.933Z,75.90
2018-05-04T23:13:48.379Z,76.10
2018-05-04T23:16:16.593Z,76.70
2018-05-04T23:18:44.039Z,76.70
2018-05-04T23:21:11.492Z,76.80
2018-05-04T23:23:38.926Z,76.90
2018-05-04T23:26:07.145Z,77.50
2018-05-04T23:28:34.589Z,77.50
2018-05-04T23:31:02.045Z,77.70
2018-05-04T23:33:29.503Z,77.80
2018-05-04T23:35:56.936Z,78.30
2018-05-04T23:38:24.389Z,78.70
2018-05-04T23:40:52.609Z,79.00
2018-05-04T23:43:20.065Z,78.90
2018-05-04T23:45:47.510Z,79.30
2018-05-04T23:48:14.957Z,79.30
2018-05-04T23:50:42.408Z,79.20
2018-05-04T23:53:09.845Z,79.90
2018-05-04T23:55:38.074Z,80.20
2018-05-04T23:58:06.284Z,80.40
